sensor_id;sensor_type;location;lat;lon;timestamp;P1;durP1;ratioP1;P2;durP2;ratioP2
944;SDS011;459;48.676;9.034;2022-12-18T00:00:24;23.90;;;16.80;;
944;SDS011;459;48.676;9.034;2022-12-18T00:02:49;22.70;;;15.23;;
944;SDS011;459;48.676;9.034;2022-12-18T00:05:14;23.13;;;15.90;;
944;SDS011;459;48.676;9.034;2022-12-18T00:07:39;28.70;;;15.60;;
944;SDS011;459;48.676;9.034;2022-12-18T00:10:05;21.37;;;15.80;;
944;SDS011;459;48.676;9.034;2022-12-18T00:12:30;28.50;;;17.80;;
944;SDS011;459;48.676;9.034;2022-12-18T00:14:55;23.83;;;15.43;;
944;SDS011;459;48.676;9.034;2022-12-18T00:17:21;25.70;;;16.30;;
944;SDS011;459;48.676;9.034;2022-12-18T00:19:46;31.60;;;17.20;;
944;SDS011;459;48.676;9.034;2022-12-18T00:22:11;26.60;;;17.17;;
944;SDS011;459;48.676;9.034;2022-12-18T00:24:36;23.40;;;18.13;;
944;SDS011;459;48.676;9.034;2022-12-18T00:27:01;26.30;;;15.30;;
944;SDS011;459;48.676;9.034;2022-12-18T00:29:27;26.13;;;16.40;;
944;SDS011;459;48.676;9.034;2022-12-18T00:31:52;24.40;;;16.40;;
944;SDS011;459;48.676;9.034;2022-12-18T00:34:17;24.90;;;15.03;;
944;SDS011;459;48.676;9.034;2022-12-18T00:36:42;23.90;;;17.17;;
944;SDS011;459;48.676;9.034;2022-12-18T00:39:08;28.00;;;15.00;;
944;SDS011;459;48.676;9.034;2022-12-18T00:41:33;26.00;;;17.40;;
944;SDS011;459;48.676;9.034;2022-12-18T00:44:17;20.00;;;14.70;;
944;SDS011;459;48.676;9.034;2022-12-18T00:46:43;27.03;;;15.03;;
944;SDS011;459;48.676;9.034;2022-12-18T00:49:08;28.33;;;17.43;;
944;SDS011;459;48.676;9.034;2022-12-18T00:51:34;24.50;;;17.10;;
944;SDS011;459;48.676;9.034;2022-12-18T00:53:59;22.70;;;15.27;;
944;SDS011;459;48.676;9.034;2022-12-18T00:56:24;25.83;;;17.20;;
944;SDS011;459;48.676;9.034;2022-12-18T00:58:49;21.40;;;15.53;;
944;SDS011;459;48.676;9.034;2022-12-18T01:01:14;32.47;;;17.07;;
944;SDS011;459;48.676;9.034;2022-12-18T01:03:40;26.03;;;16.90;;
944;SDS011;459;48.676;9.034;2022-12-18T01:06:09;26.33;;;16.70;;
944;SDS011;459;48.676;9.034;2022-12-18T01:08:34;30.30;;;17.00;;
944;SDS011;459;48.676;9.034;2022-12-18T01:10:59;27.00;;;16.93;;
944;SDS011;459;48.676;9.034;2022-12-18T01:13:25;19.70;;;15.27;;
944;SDS011;459;48.676;9.034;2022-12-18T01:15:50;30.93;;;17.73;;
944;SDS011;459;48.676;9.034;2022-12-18T01:18:16;24.83;;;15.90;;
944;SDS011;459;48.676;9.034;2022-12-18T01:20:41;24.97;;;16.53;;
944;SDS011;459;48.676;9.034;2022-12-18T01:23:06;30.23;;;16.77;;
944;SDS011;459;48.676;9.034;2022-12-18T01:25:32;22.50;;;16.33;;
944;SDS011;459;48.676;9.034;2022-12-18T01:27:58;29.93;;;18.90;;
944;SDS011;459;48.676;9.034;2022-12-18T01:30:23;28.33;;;16.70;;
944;SDS011;459;48.676;9.034;2022-12-18T01:32:48;26.63;;;16.47;;
944;SDS011;459;48.676;9.034;2022-12-18T01:35:14;30.73;;;17.60;;
944;SDS011;459;48.676;9.034;2022-12-18T01:37:39;30.30;;;17.50;;
944;SDS011;459;48.676;9.034;2022-12-18T01:40:04;26.70;;;15.67;;
944;SDS011;459;48.676;9.034;2022-12-18T01:42:30;30.07;;;17.03;;
944;SDS011;459;48.676;9.034;2022-12-18T01:44:59;28.20;;;15.50;;
944;SDS011;459;48.676;9.034;2022-12-18T01:47:44;23.58;;;15.65;;
944;SDS011;459;48.676;9.034;2022-12-18T01:52:46;25.23;;;15.03;;
944;SDS011;459;48.676;9.034;2022-12-18T01:55:12;25.58;;;17.08;;
944;SDS011;459;48.676;9.034;2022-12-18T01:57:38;38.13;;;18.95;;
944;SDS011;459;48.676;9.034;2022-12-18T02:00:06;28.97;;;18.50;;
944;SDS011;459;48.676;9.034;2022-12-18T02:02:31;32.53;;;18.58;;
944;SDS011;459;48.676;9.034;2022-12-18T02:04:57;25.77;;;15.70;;
944;SDS011;459;48.676;9.034;2022-12-18T02:07:30;28.73;;;19.00;;
944;SDS011;459;48.676;9.034;2022-12-18T02:10:06;28.83;;;16.30;;
944;SDS011;459;48.676;9.034;2022-12-18T02:12:38;26.03;;;17.67;;
944;SDS011;459;48.676;9.034;2022-12-18T02:17:34;28.13;;;14.90;;
944;SDS011;459;48.676;9.034;2022-12-18T02:20:11;27.80;;;15.20;;
944;SDS011;459;48.676;9.034;2022-12-18T02:27:41;31.03;;;17.27;;
944;SDS011;459;48.676;9.034;2022-12-18T02:30:09;28.20;;;16.63;;
944;SDS011;459;48.676;9.034;2022-12-18T02:32:35;33.17;;;17.40;;
944;SDS011;459;48.676;9.034;2022-12-18T02:35:03;29.67;;;16.20;;
944;SDS011;459;48.676;9.034;2022-12-18T02:37:29;28.67;;;18.00;;
944;SDS011;459;48.676;9.034;2022-12-18T02:39:55;28.27;;;16.70;;
944;SDS011;459;48.676;9.034;2022-12-18T02:42:21;28.90;;;16.10;;
944;SDS011;459;48.676;9.034;2022-12-18T02:44:48;34.73;;;18.47;;
944;SDS011;459;48.676;9.034;2022-12-18T02:47:15;37.50;;;19.23;;
944;SDS011;459;48.676;9.034;2022-12-18T02:57:39;29.20;;;17.92;;
944;SDS011;459;48.676;9.034;2022-12-18T03:00:10;27.13;;;16.85;;
944;SDS011;459;48.676;9.034;2022-12-18T03:05:07;20.70;;;14.90;;
944;SDS011;459;48.676;9.034;2022-12-18T03:07:44;34.47;;;18.30;;
944;SDS011;459;48.676;9.034;2022-12-18T03:10:13;25.80;;;16.87;;
944;SDS011;459;48.676;9.034;2022-12-18T03:12:40;29.77;;;19.42;;
944;SDS011;459;48.676;9.034;2022-12-18T03:15:15;25.40;;;17.10;;
944;SDS011;459;48.676;9.034;2022-12-18T03:17:42;26.13;;;15.80;;
944;SDS011;459;48.676;9.034;2022-12-18T03:20:10;27.38;;;17.30;;
944;SDS011;459;48.676;9.034;2022-12-18T03:22:37;24.05;;;16.65;;
944;SDS011;459;48.676;9.034;2022-12-18T03:25:04;24.83;;;17.63;;
944;SDS011;459;48.676;9.034;2022-12-18T03:27:30;25.23;;;17.23;;
944;SDS011;459;48.676;9.034;2022-12-18T03:30:05;31.85;;;18.55;;
944;SDS011;459;48.676;9.034;2022-12-18T03:32:40;32.17;;;19.37;;
944;SDS011;459;48.676;9.034;2022-12-18T03:35:07;31.03;;;17.00;;
944;SDS011;459;48.676;9.034;2022-12-18T03:37:34;30.00;;;18.40;;
944;SDS011;459;48.676;9.034;2022-12-18T03:39:59;27.43;;;17.70;;
944;SDS011;459;48.676;9.034;2022-12-18T03:43:10;29.87;;;19.10;;
944;SDS011;459;48.676;9.034;2022-12-18T03:55:55;27.53;;;17.70;;
944;SDS011;459;48.676;9.034;2022-12-18T03:58:23;28.67;;;17.07;;
944;SDS011;459;48.676;9.034;2022-12-18T04:00:49;35.30;;;19.60;;
944;SDS011;459;48.676;9.034;2022-12-18T04:03:15;26.57;;;16.00;;
944;SDS011;459;48.676;9.034;2022-12-18T04:05:43;28.53;;;16.37;;
944;SDS011;459;48.676;9.034;2022-12-18T04:08:08;27.40;;;16.33;;
944;SDS011;459;48.676;9.034;2022-12-18T04:10:34;29.10;;;16.37;;
944;SDS011;459;48.676;9.034;2022-12-18T04:12:59;24.60;;;15.97;;
944;SDS011;459;48.676;9.034;2022-12-18T04:15:24;28.90;;;16.67;;
944;SDS011;459;48.676;9.034;2022-12-18T04:17:49;21.37;;;17.10;;
944;SDS011;459;48.676;9.034;2022-12-18T04:20:15;27.20;;;17.00;;
944;SDS011;459;48.676;9.034;2022-12-18T04:22:40;24.37;;;16.17;;
944;SDS011;459;48.676;9.034;2022-12-18T04:25:06;17.20;;;9.60;;
944;SDS011;459;48.676;9.034;2022-12-18T04:27:31;28.27;;;15.43;;
944;SDS011;459;48.676;9.034;2022-12-18T04:29:56;22.90;;;15.07;;
944;SDS011;459;48.676;9.034;2022-12-18T04:32:22;23.60;;;15.90;;
944;SDS011;459;48.676;9.034;2022-12-18T04:34:47;23.07;;;14.83;;
944;SDS011;459;48.676;9.034;2022-12-18T04:37:12;24.60;;;15.87;;
944;SDS011;459;48.676;9.034;2022-12-18T04:39:37;27.80;;;17.07;;
944;SDS011;459;48.676;9.034;2022-12-18T04:42:03;27.30;;;15.70;;
944;SDS011;459;48.676;9.034;2022-12-18T04:44:28;25.37;;;15.73;;
944;SDS011;459;48.676;9.034;2022-12-18T04:46:53;21.37;;;14.70;;
944;SDS011;459;48.676;9.034;2022-12-18T04:49:18;22.97;;;14.60;;
944;SDS011;459;48.676;9.034;2022-12-18T04:51:43;25.70;;;17.07;;
944;SDS011;459;48.676;9.034;2022-12-18T04:54:08;21.90;;;14.97;;
944;SDS011;459;48.676;9.034;2022-12-18T04:56:34;18.30;;;14.87;;
944;SDS011;459;48.676;9.034;2022-12-18T04:58:59;19.67;;;14.53;;
944;SDS011;459;48.676;9.034;2022-12-18T05:01:24;22.37;;;14.77;;
944;SDS011;459;48.676;9.034;2022-12-18T05:03:50;27.70;;;14.90;;
944;SDS011;459;48.676;9.034;2022-12-18T05:06:16;16.42;;;12.82;;
944;SDS011;459;48.676;9.034;2022-12-18T05:08:41;22.20;;;15.10;;
944;SDS011;459;48.676;9.034;2022-12-18T05:11:10;29.67;;;14.27;;
944;SDS011;459;48.676;9.034;2022-12-18T05:13:36;20.52;;;14.38;;
944;SDS011;459;48.676;9.034;2022-12-18T05:16:02;23.50;;;13.75;;
944;SDS011;459;48.676;9.034;2022-12-18T05:18:28;16.90;;;12.77;;
944;SDS011;459;48.676;9.034;2022-12-18T05:20:53;29.40;;;16.40;;
944;SDS011;459;48.676;9.034;2022-12-18T05:23:19;19.47;;;12.97;;
944;SDS011;459;48.676;9.034;2022-12-18T05:25:51;21.87;;;13.00;;
944;SDS011;459;48.676;9.034;2022-12-18T05:28:17;18.65;;;13.80;;
944;SDS011;459;48.676;9.034;2022-12-18T05:30:42;25.17;;;14.70;;
944;SDS011;459;48.676;9.034;2022-12-18T05:33:07;25.20;;;14.53;;
944;SDS011;459;48.676;9.034;2022-12-18T05:35:32;23.27;;;14.90;;
944;SDS011;459;48.676;9.034;2022-12-18T05:37:57;20.20;;;14.10;;
944;SDS011;459;48.676;9.034;2022-12-18T05:40:22;24.50;;;14.77;;
944;SDS011;459;48.676;9.034;2022-12-18T05:42:48;23.60;;;14.53;;
944;SDS011;459;48.676;9.034;2022-12-18T05:45:13;20.20;;;13.60;;
944;SDS011;459;48.676;9.034;2022-12-18T05:47:38;24.83;;;13.47;;
944;SDS011;459;48.676;9.034;2022-12-18T05:50:03;21.77;;;13.70;;
944;SDS011;459;48.676;9.034;2022-12-18T05:52:29;24.97;;;13.50;;
944;SDS011;459;48.676;9.034;2022-12-18T05:54:55;21.05;;;12.15;;
944;SDS011;459;48.676;9.034;2022-12-18T05:57:20;22.93;;;14.27;;
944;SDS011;459;48.676;9.034;2022-12-18T05:59:45;23.50;;;13.27;;
944;SDS011;459;48.676;9.034;2022-12-18T06:02:10;21.43;;;13.40;;
944;SDS011;459;48.676;9.034;2022-12-18T06:04:35;25.50;;;13.90;;
944;SDS011;459;48.676;9.034;2022-12-18T06:07:01;27.90;;;17.20;;
944;SDS011;459;48.676;9.034;2022-12-18T06:09:26;25.73;;;14.60;;
944;SDS011;459;48.676;9.034;2022-12-18T06:11:51;22.80;;;13.57;;
944;SDS011;459;48.676;9.034;2022-12-18T06:14:17;20.23;;;13.47;;
944;SDS011;459;48.676;9.034;2022-12-18T06:16:42;25.37;;;14.00;;
944;SDS011;459;48.676;9.034;2022-12-18T06:19:07;20.53;;;13.93;;
944;SDS011;459;48.676;9.034;2022-12-18T06:21:32;24.43;;;14.80;;
944;SDS011;459;48.676;9.034;2022-12-18T06:23:58;24.93;;;14.70;;
944;SDS011;459;48.676;9.034;2022-12-18T06:26:23;19.93;;;13.47;;
944;SDS011;459;48.676;9.034;2022-12-18T06:28:48;21.10;;;14.20;;
944;SDS011;459;48.676;9.034;2022-12-18T06:31:13;21.07;;;13.27;;
944;SDS011;459;48.676;9.034;2022-12-18T06:33:39;23.73;;;12.50;;
944;SDS011;459;48.676;9.034;2022-12-18T06:36:05;23.03;;;13.13;;
944;SDS011;459;48.676;9.034;2022-12-18T06:38:31;29.52;;;13.02;;
944;SDS011;459;48.676;9.034;2022-12-18T06:40:56;25.73;;;14.90;;
944;SDS011;459;48.676;9.034;2022-12-18T06:43:22;18.70;;;12.37;;
944;SDS011;459;48.676;9.034;2022-12-18T06:45:47;26.47;;;13.90;;
944;SDS011;459;48.676;9.034;2022-12-18T06:48:17;22.65;;;12.80;;
944;SDS011;459;48.676;9.034;2022-12-18T06:50:42;21.00;;;13.67;;
944;SDS011;459;48.676;9.034;2022-12-18T06:53:07;19.63;;;12.63;;
944;SDS011;459;48.676;9.034;2022-12-18T06:55:33;25.20;;;13.77;;
944;SDS011;459;48.676;9.034;2022-12-18T06:57:58;20.37;;;13.90;;
944;SDS011;459;48.676;9.034;2022-12-18T07:00:23;23.50;;;15.17;;
944;SDS011;459;48.676;9.034;2022-12-18T07:02:48;26.37;;;14.33;;
944;SDS011;459;48.676;9.034;2022-12-18T07:05:13;21.03;;;14.63;;
944;SDS011;459;48.676;9.034;2022-12-18T07:07:39;22.40;;;16.00;;
944;SDS011;459;48.676;9.034;2022-12-18T07:10:04;23.30;;;16.80;;
944;SDS011;459;48.676;9.034;2022-12-18T07:12:29;22.57;;;15.97;;
944;SDS011;459;48.676;9.034;2022-12-18T07:14:54;35.77;;;18.67;;
944;SDS011;459;48.676;9.034;2022-12-18T07:17:20;25.63;;;16.73;;
944;SDS011;459;48.676;9.034;2022-12-18T07:19:45;26.20;;;17.13;;
944;SDS011;459;48.676;9.034;2022-12-18T07:22:10;26.63;;;16.33;;
944;SDS011;459;48.676;9.034;2022-12-18T07:24:35;25.87;;;15.20;;
944;SDS011;459;48.676;9.034;2022-12-18T07:27:00;34.37;;;21.40;;
944;SDS011;459;48.676;9.034;2022-12-18T07:29:26;30.90;;;17.20;;
944;SDS011;459;48.676;9.034;2022-12-18T07:31:51;27.00;;;16.53;;
944;SDS011;459;48.676;9.034;2022-12-18T07:34:16;33.07;;;17.57;;
944;SDS011;459;48.676;9.034;2022-12-18T07:36:42;25.03;;;15.47;;
944;SDS011;459;48.676;9.034;2022-12-18T07:39:07;39.40;;;20.77;;
944;SDS011;459;48.676;9.034;2022-12-18T07:41:32;47.30;;;26.23;;
944;SDS011;459;48.676;9.034;2022-12-18T07:43:58;51.20;;;24.73;;
944;SDS011;459;48.676;9.034;2022-12-18T07:46:23;34.40;;;18.70;;
944;SDS011;459;48.676;9.034;2022-12-18T07:48:48;29.20;;;16.37;;
944;SDS011;459;48.676;9.034;2022-12-18T07:51:13;31.80;;;17.73;;
944;SDS011;459;48.676;9.034;2022-12-18T07:53:39;23.50;;;16.43;;
944;SDS011;459;48.676;9.034;2022-12-18T07:56:05;25.27;;;15.00;;
944;SDS011;459;48.676;9.034;2022-12-18T07:58:31;24.60;;;15.20;;
944;SDS011;459;48.676;9.034;2022-12-18T08:01:06;30.03;;;15.00;;
944;SDS011;459;48.676;9.034;2022-12-18T08:03:32;37.55;;;19.38;;
944;SDS011;459;48.676;9.034;2022-12-18T08:05:58;25.87;;;14.40;;
944;SDS011;459;48.676;9.034;2022-12-18T08:08:23;24.98;;;16.23;;
944;SDS011;459;48.676;9.034;2022-12-18T08:10:49;33.57;;;18.27;;
944;SDS011;459;48.676;9.034;2022-12-18T08:13:14;33.93;;;18.23;;
944;SDS011;459;48.676;9.034;2022-12-18T08:15:39;31.00;;;15.97;;
944;SDS011;459;48.676;9.034;2022-12-18T08:18:04;27.77;;;17.67;;
944;SDS011;459;48.676;9.034;2022-12-18T08:20:29;32.37;;;19.30;;
944;SDS011;459;48.676;9.034;2022-12-18T08:22:55;30.10;;;19.10;;
944;SDS011;459;48.676;9.034;2022-12-18T08:25:20;24.70;;;15.40;;
944;SDS011;459;48.676;9.034;2022-12-18T08:27:45;28.77;;;15.43;;
944;SDS011;459;48.676;9.034;2022-12-18T08:30:10;28.73;;;15.77;;
944;SDS011;459;48.676;9.034;2022-12-18T08:32:36;26.13;;;16.63;;
944;SDS011;459;48.676;9.034;2022-12-18T08:35:01;29.77;;;15.80;;
944;SDS011;459;48.676;9.034;2022-12-18T08:37:26;34.60;;;19.03;;
944;SDS011;459;48.676;9.034;2022-12-18T08:39:51;19.87;;;10.27;;
944;SDS011;459;48.676;9.034;2022-12-18T08:42:17;25.83;;;17.37;;
944;SDS011;459;48.676;9.034;2022-12-18T08:45:01;35.50;;;19.77;;
944;SDS011;459;48.676;9.034;2022-12-18T08:47:26;27.90;;;16.53;;
944;SDS011;459;48.676;9.034;2022-12-18T08:49:51;23.23;;;15.93;;
944;SDS011;459;48.676;9.034;2022-12-18T08:52:16;33.03;;;18.30;;
944;SDS011;459;48.676;9.034;2022-12-18T08:54:42;30.30;;;18.53;;
944;SDS011;459;48.676;9.034;2022-12-18T08:57:07;34.13;;;19.40;;
944;SDS011;459;48.676;9.034;2022-12-18T08:59:32;31.77;;;18.77;;
944;SDS011;459;48.676;9.034;2022-12-18T09:01:57;35.20;;;19.20;;
944;SDS011;459;48.676;9.034;2022-12-18T09:04:23;35.47;;;21.27;;
944;SDS011;459;48.676;9.034;2022-12-18T09:06:49;33.70;;;19.97;;
944;SDS011;459;48.676;9.034;2022-12-18T09:09:14;41.80;;;20.73;;
944;SDS011;459;48.676;9.034;2022-12-18T09:11:39;36.20;;;22.30;;
944;SDS011;459;48.676;9.034;2022-12-18T09:14:04;38.17;;;22.07;;
944;SDS011;459;48.676;9.034;2022-12-18T09:16:29;31.70;;;19.40;;
944;SDS011;459;48.676;9.034;2022-12-18T09:18:56;34.63;;;20.17;;
944;SDS011;459;48.676;9.034;2022-12-18T09:21:25;36.37;;;20.80;;
944;SDS011;459;48.676;9.034;2022-12-18T09:23:51;26.93;;;15.17;;
944;SDS011;459;48.676;9.034;2022-12-18T09:26:16;37.37;;;20.00;;
944;SDS011;459;48.676;9.034;2022-12-18T09:28:42;36.07;;;17.57;;
944;SDS011;459;48.676;9.034;2022-12-18T09:31:07;37.73;;;19.73;;
944;SDS011;459;48.676;9.034;2022-12-18T09:33:34;37.83;;;16.73;;
944;SDS011;459;48.676;9.034;2022-12-18T09:36:00;23.07;;;13.53;;
944;SDS011;459;48.676;9.034;2022-12-18T09:38:26;25.07;;;15.90;;
944;SDS011;459;48.676;9.034;2022-12-18T09:40:52;32.63;;;19.57;;
944;SDS011;459;48.676;9.034;2022-12-18T09:43:19;33.20;;;18.57;;
944;SDS011;459;48.676;9.034;2022-12-18T09:45:46;38.30;;;21.07;;
944;SDS011;459;48.676;9.034;2022-12-18T09:48:18;35.20;;;19.97;;
944;SDS011;459;48.676;9.034;2022-12-18T09:50:44;31.87;;;18.83;;
944;SDS011;459;48.676;9.034;2022-12-18T09:53:12;32.60;;;15.40;;
944;SDS011;459;48.676;9.034;2022-12-18T09:55:41;32.13;;;18.47;;
944;SDS011;459;48.676;9.034;2022-12-18T09:58:13;31.03;;;19.53;;
944;SDS011;459;48.676;9.034;2022-12-18T10:00:41;20.50;;;13.07;;
944;SDS011;459;48.676;9.034;2022-12-18T10:03:10;29.73;;;15.90;;
944;SDS011;459;48.676;9.034;2022-12-18T10:05:41;25.87;;;16.20;;
944;SDS011;459;48.676;9.034;2022-12-18T10:08:21;31.77;;;16.47;;
944;SDS011;459;48.676;9.034;2022-12-18T10:10:53;25.53;;;13.50;;
944;SDS011;459;48.676;9.034;2022-12-18T10:13:34;30.60;;;17.23;;
944;SDS011;459;48.676;9.034;2022-12-18T10:16:23;29.63;;;19.90;;
944;SDS011;459;48.676;9.034;2022-12-18T10:18:55;28.20;;;16.83;;
944;SDS011;459;48.676;9.034;2022-12-18T10:21:25;28.73;;;14.73;;
944;SDS011;459;48.676;9.034;2022-12-18T10:24:13;37.70;;;21.70;;
944;SDS011;459;48.676;9.034;2022-12-18T10:26:41;28.83;;;18.90;;
944;SDS011;459;48.676;9.034;2022-12-18T10:29:13;36.63;;;21.13;;
944;SDS011;459;48.676;9.034;2022-12-18T10:31:39;23.47;;;11.13;;
944;SDS011;459;48.676;9.034;2022-12-18T10:34:07;23.83;;;14.47;;
944;SDS011;459;48.676;9.034;2022-12-18T10:36:33;26.50;;;17.10;;
944;SDS011;459;48.676;9.034;2022-12-18T10:39:18;33.20;;;19.17;;
944;SDS011;459;48.676;9.034;2022-12-18T10:41:44;25.77;;;14.00;;
944;SDS011;459;48.676;9.034;2022-12-18T10:44:20;38.17;;;21.97;;
944;SDS011;459;48.676;9.034;2022-12-18T10:46:46;35.93;;;20.90;;
944;SDS011;459;48.676;9.034;2022-12-18T10:51:49;23.27;;;13.00;;
944;SDS011;459;48.676;9.034;2022-12-18T10:54:15;18.00;;;10.03;;
944;SDS011;459;48.676;9.034;2022-12-18T10:56:41;31.97;;;18.10;;
944;SDS011;459;48.676;9.034;2022-12-18T10:59:07;34.40;;;18.90;;
944;SDS011;459;48.676;9.034;2022-12-18T11:04:18;25.47;;;13.50;;
944;SDS011;459;48.676;9.034;2022-12-18T11:06:57;28.37;;;17.37;;
944;SDS011;459;48.676;9.034;2022-12-18T11:09:24;33.13;;;17.50;;
944;SDS011;459;48.676;9.034;2022-12-18T11:11:49;37.97;;;22.50;;
944;SDS011;459;48.676;9.034;2022-12-18T11:14:27;27.30;;;17.20;;
944;SDS011;459;48.676;9.034;2022-12-18T11:16:53;34.23;;;20.73;;
944;SDS011;459;48.676;9.034;2022-12-18T11:19:34;28.97;;;18.20;;
944;SDS011;459;48.676;9.034;2022-12-18T11:22:01;29.70;;;18.17;;
944;SDS011;459;48.676;9.034;2022-12-18T11:24:33;29.73;;;17.27;;
944;SDS011;459;48.676;9.034;2022-12-18T11:27:00;32.10;;;17.93;;
944;SDS011;459;48.676;9.034;2022-12-18T11:29:36;32.83;;;17.60;;
944;SDS011;459;48.676;9.034;2022-12-18T11:34:46;32.77;;;19.00;;
944;SDS011;459;48.676;9.034;2022-12-18T11:37:13;30.33;;;17.40;;
944;SDS011;459;48.676;9.034;2022-12-18T11:44:50;29.60;;;17.00;;
944;SDS011;459;48.676;9.034;2022-12-18T11:49:47;30.40;;;19.50;;
944;SDS011;459;48.676;9.034;2022-12-18T11:54:39;29.30;;;16.17;;
944;SDS011;459;48.676;9.034;2022-12-18T11:59:42;23.33;;;15.43;;
944;SDS011;459;48.676;9.034;2022-12-18T12:04:45;29.23;;;16.30;;
944;SDS011;459;48.676;9.034;2022-12-18T12:12:27;27.57;;;15.53;;
944;SDS011;459;48.676;9.034;2022-12-18T12:19:55;27.70;;;16.53;;
944;SDS011;459;48.676;9.034;2022-12-18T12:40:18;26.57;;;15.63;;
944;SDS011;459;48.676;9.034;2022-12-18T12:42:45;34.57;;;21.87;;
944;SDS011;459;48.676;9.034;2022-12-18T12:45:36;28.33;;;15.17;;
944;SDS011;459;48.676;9.034;2022-12-18T12:48:02;38.27;;;20.40;;
944;SDS011;459;48.676;9.034;2022-12-18T12:50:30;31.67;;;17.27;;
944;SDS011;459;48.676;9.034;2022-12-18T12:52:57;32.90;;;19.80;;
944;SDS011;459;48.676;9.034;2022-12-18T12:55:24;31.43;;;19.60;;
944;SDS011;459;48.676;9.034;2022-12-18T13:00:18;33.07;;;19.53;;
944;SDS011;459;48.676;9.034;2022-12-18T13:05:26;36.87;;;20.97;;
944;SDS011;459;48.676;9.034;2022-12-18T13:07:59;28.00;;;17.67;;
944;SDS011;459;48.676;9.034;2022-12-18T13:15:33;28.10;;;18.37;;
944;SDS011;459;48.676;9.034;2022-12-18T13:18:03;34.17;;;19.37;;
944;SDS011;459;48.676;9.034;2022-12-18T13:20:35;32.63;;;18.23;;
944;SDS011;459;48.676;9.034;2022-12-18T13:23:01;36.00;;;19.60;;
944;SDS011;459;48.676;9.034;2022-12-18T13:33:30;36.50;;;20.03;;
944;SDS011;459;48.676;9.034;2022-12-18T13:40:58;32.67;;;18.98;;
944;SDS011;459;48.676;9.034;2022-12-18T13:43:27;33.47;;;19.30;;
944;SDS011;459;48.676;9.034;2022-12-18T13:46:00;37.17;;;21.33;;
944;SDS011;459;48.676;9.034;2022-12-18T13:48:26;35.23;;;20.10;;
944;SDS011;459;48.676;9.034;2022-12-18T13:50:53;39.67;;;21.17;;
944;SDS011;459;48.676;9.034;2022-12-18T13:53:21;35.37;;;19.90;;
944;SDS011;459;48.676;9.034;2022-12-18T13:55:47;35.17;;;21.80;;
944;SDS011;459;48.676;9.034;2022-12-18T13:58:13;36.43;;;21.90;;
944;SDS011;459;48.676;9.034;2022-12-18T14:00:42;34.70;;;20.83;;
944;SDS011;459;48.676;9.034;2022-12-18T14:03:18;33.47;;;19.17;;
944;SDS011;459;48.676;9.034;2022-12-18T14:05:43;35.17;;;20.60;;
944;SDS011;459;48.676;9.034;2022-12-18T14:08:15;32.83;;;21.53;;
944;SDS011;459;48.676;9.034;2022-12-18T14:10:41;38.80;;;23.27;;
944;SDS011;459;48.676;9.034;2022-12-18T14:13:08;40.03;;;21.20;;
944;SDS011;459;48.676;9.034;2022-12-18T14:15:35;38.10;;;22.07;;
944;SDS011;459;48.676;9.034;2022-12-18T14:20:45;32.80;;;22.27;;
944;SDS011;459;48.676;9.034;2022-12-18T14:23:27;38.77;;;23.00;;
944;SDS011;459;48.676;9.034;2022-12-18T14:25:52;34.40;;;20.27;;
944;SDS011;459;48.676;9.034;2022-12-18T14:28:17;33.23;;;22.60;;
944;SDS011;459;48.676;9.034;2022-12-18T14:30:43;42.07;;;23.80;;
944;SDS011;459;48.676;9.034;2022-12-18T14:33:19;35.40;;;20.83;;
944;SDS011;459;48.676;9.034;2022-12-18T14:36:01;41.77;;;22.20;;
944;SDS011;459;48.676;9.034;2022-12-18T14:38:39;43.70;;;25.73;;
944;SDS011;459;48.676;9.034;2022-12-18T14:41:11;54.20;;;32.70;;
944;SDS011;459;48.676;9.034;2022-12-18T14:43:38;54.57;;;36.93;;
944;SDS011;459;48.676;9.034;2022-12-18T14:46:04;40.90;;;30.57;;
944;SDS011;459;48.676;9.034;2022-12-18T14:48:37;42.73;;;30.27;;
944;SDS011;459;48.676;9.034;2022-12-18T14:53:32;62.13;;;36.43;;
944;SDS011;459;48.676;9.034;2022-12-18T14:55:57;47.10;;;32.70;;
944;SDS011;459;48.676;9.034;2022-12-18T14:58:23;51.23;;;28.70;;
944;SDS011;459;48.676;9.034;2022-12-18T15:00:48;44.60;;;30.17;;
944;SDS011;459;48.676;9.034;2022-12-18T15:03:17;42.10;;;27.63;;
944;SDS011;459;48.676;9.034;2022-12-18T15:05:43;39.60;;;25.10;;
944;SDS011;459;48.676;9.034;2022-12-18T15:10:52;44.20;;;28.23;;
944;SDS011;459;48.676;9.034;2022-12-18T15:13:21;51.70;;;30.33;;
944;SDS011;459;48.676;9.034;2022-12-18T15:15:47;59.67;;;36.10;;
944;SDS011;459;48.676;9.034;2022-12-18T15:18:13;52.70;;;34.80;;
944;SDS011;459;48.676;9.034;2022-12-18T15:20:41;45.90;;;31.73;;
944;SDS011;459;48.676;9.034;2022-12-18T15:26:01;44.10;;;26.43;;
944;SDS011;459;48.676;9.034;2022-12-18T15:30:59;38.20;;;25.27;;
944;SDS011;459;48.676;9.034;2022-12-18T15:33:26;47.37;;;30.37;;
944;SDS011;459;48.676;9.034;2022-12-18T15:36:01;54.37;;;29.67;;
944;SDS011;459;48.676;9.034;2022-12-18T15:38:26;42.80;;;26.43;;
944;SDS011;459;48.676;9.034;2022-12-18T15:40:52;43.80;;;24.97;;
944;SDS011;459;48.676;9.034;2022-12-18T15:43:18;45.93;;;26.63;;
944;SDS011;459;48.676;9.034;2022-12-18T15:46:01;49.23;;;29.30;;
944;SDS011;459;48.676;9.034;2022-12-18T15:48:27;49.10;;;28.17;;
944;SDS011;459;48.676;9.034;2022-12-18T15:50:52;51.10;;;32.13;;
944;SDS011;459;48.676;9.034;2022-12-18T15:53:18;69.73;;;43.57;;
944;SDS011;459;48.676;9.034;2022-12-18T15:55:43;111.50;;;68.80;;
944;SDS011;459;48.676;9.034;2022-12-18T15:58:27;87.23;;;55.27;;
944;SDS011;459;48.676;9.034;2022-12-18T16:00:53;76.07;;;46.50;;
944;SDS011;459;48.676;9.034;2022-12-18T16:03:19;64.83;;;49.07;;
944;SDS011;459;48.676;9.034;2022-12-18T16:05:44;72.70;;;55.83;;
944;SDS011;459;48.676;9.034;2022-12-18T16:08:09;58.13;;;40.20;;
944;SDS011;459;48.676;9.034;2022-12-18T16:10:35;55.07;;;36.73;;
944;SDS011;459;48.676;9.034;2022-12-18T16:13:00;52.40;;;34.70;;
944;SDS011;459;48.676;9.034;2022-12-18T16:15:25;46.33;;;31.60;;
944;SDS011;459;48.676;9.034;2022-12-18T16:17:50;53.40;;;31.70;;
944;SDS011;459;48.676;9.034;2022-12-18T16:20:17;58.37;;;29.87;;
944;SDS011;459;48.676;9.034;2022-12-18T16:22:43;53.37;;;30.37;;
944;SDS011;459;48.676;9.034;2022-12-18T16:25:30;48.20;;;28.40;;
944;SDS011;459;48.676;9.034;2022-12-18T16:27:55;39.40;;;25.60;;
944;SDS011;459;48.676;9.034;2022-12-18T16:30:22;39.27;;;25.77;;
944;SDS011;459;48.676;9.034;2022-12-18T16:32:47;51.23;;;30.07;;
944;SDS011;459;48.676;9.034;2022-12-18T16:35:15;58.10;;;32.67;;
944;SDS011;459;48.676;9.034;2022-12-18T16:37:40;56.30;;;36.17;;
944;SDS011;459;48.676;9.034;2022-12-18T16:40:06;50.70;;;27.50;;
944;SDS011;459;48.676;9.034;2022-12-18T16:42:33;56.77;;;35.47;;
944;SDS011;459;48.676;9.034;2022-12-18T16:44:59;51.43;;;28.60;;
944;SDS011;459;48.676;9.034;2022-12-18T16:47:24;53.93;;;30.00;;
944;SDS011;459;48.676;9.034;2022-12-18T16:49:49;44.63;;;27.20;;
944;SDS011;459;48.676;9.034;2022-12-18T16:52:16;52.93;;;29.60;;
944;SDS011;459;48.676;9.034;2022-12-18T16:54:42;39.73;;;26.73;;
944;SDS011;459;48.676;9.034;2022-12-18T16:57:08;44.40;;;27.00;;
944;SDS011;459;48.676;9.034;2022-12-18T16:59:33;47.17;;;26.90;;
944;SDS011;459;48.676;9.034;2022-12-18T17:01:59;48.77;;;27.20;;
944;SDS011;459;48.676;9.034;2022-12-18T17:04:24;56.13;;;33.83;;
944;SDS011;459;48.676;9.034;2022-12-18T17:06:49;57.80;;;35.73;;
944;SDS011;459;48.676;9.034;2022-12-18T17:09:16;49.03;;;28.27;;
944;SDS011;459;48.676;9.034;2022-12-18T17:11:42;52.63;;;30.77;;
944;SDS011;459;48.676;9.034;2022-12-18T17:14:08;40.43;;;27.37;;